Time;durP1;ratioP1;P1;durP2;ratioP2;P2;SDS_P1;SDS_P2;PMS_P1;PMS_P2;Temp;Humidity;BMP_temperature;BMP_pressure;BME280_temperature;BME280_humidity;BME280_pressure;Samples;Min_cycle;Max_cycle;Signal;HPM_P1;HPM_P2
2021/12/19 00:04:32;;;;;;;10.77;8.25;;;18.50;68.60;;;;;;5038872;28;20025;-81
2021/12/19 00:09:43;;;;;;;11.02;7.55;;;18.50;68.70;;;;;;5013186;28;20492;-82
2021/12/19 00:12:09;;;;;;;10.90;8.27;;;18.40;68.60;;;;;;5016739;28;20071;-81
2021/12/19 00:14:35;;;;;;;11.93;8.07;;;18.40;68.70;;;;;;5033379;28;20037;-81
2021/12/19 00:17:01;;;;;;;10.73;7.78;;;18.40;68.70;;;;;;5033458;28;20017;-80
2021/12/19 00:19:26;;;;;;;12.25;8.25;;;18.30;68.70;;;;;;5034294;28;20104;-81
2021/12/19 00:21:52;;;;;;;10.15;7.78;;;18.30;68.60;;;;;;5015814;28;20112;-82
2021/12/19 00:24:18;;;;;;;13.50;8.90;;;18.30;68.70;;;;;;5033609;28;20044;-82
2021/12/19 00:26:44;;;;;;;11.90;8.02;;;18.30;68.80;;;;;;5033840;28;20412;-82
2021/12/19 00:29:10;;;;;;;10.95;8.00;;;18.20;68.90;;;;;;5034262;28;20458;-82
2021/12/19 00:31:37;;;;;;;14.10;8.32;;;18.20;68.80;;;;;;5015325;28;20045;-82
2021/12/19 00:34:03;;;;;;;11.23;8.43;;;18.20;68.90;;;;;;5015619;28;20420;-82
2021/12/19 00:36:29;;;;;;;11.93;8.18;;;18.20;68.80;;;;;;5033017;28;20028;-83
2021/12/19 00:38:55;;;;;;;11.00;8.13;;;18.20;68.90;;;;;;5015498;28;20026;-82
2021/12/19 00:41:20;;;;;;;11.32;8.38;;;18.20;68.70;;;;;;5032898;28;20050;-82
2021/12/19 00:43:53;;;;;;;12.40;8.90;;;18.20;68.70;;;;;;5033225;28;20112;-82
2021/12/19 00:46:22;;;;;;;11.45;8.23;;;18.10;68.80;;;;;;5014942;28;20030;-82
2021/12/19 00:48:50;;;;;;;11.55;8.52;;;18.10;68.80;;;;;;5015597;28;20030;-83
2021/12/19 00:51:22;;;;;;;11.23;8.63;;;18.10;68.80;;;;;;5033335;28;20409;-82
2021/12/19 00:53:50;;;;;;;12.00;8.20;;;18.00;68.80;;;;;;5015059;28;20390;-82
2021/12/19 00:56:16;;;;;;;12.07;8.05;;;18.00;68.90;;;;;;5015466;28;20033;-83
2021/12/19 00:58:43;;;;;;;11.77;8.75;;;18.00;68.80;;;;;;5032591;28;20057;-83
2021/12/19 01:01:10;;;;;;;13.45;9.18;;;18.00;68.80;;;;;;5033795;28;20026;-83
2021/12/19 01:03:37;;;;;;;11.85;8.85;;;18.00;68.80;;;;;;5031759;28;20047;-81
2021/12/19 01:06:04;;;;;;;11.68;8.32;;;18.00;68.90;;;;;;5032691;28;20540;-82
2021/12/19 01:08:30;;;;;;;11.65;8.48;;;17.90;68.90;;;;;;5014637;28;20057;-81
2021/12/19 01:10:55;;;;;;;10.80;8.77;;;17.90;68.90;;;;;;5032651;28;20056;-82
2021/12/19 01:13:22;;;;;;;11.43;7.88;;;17.90;69.10;;;;;;5032226;28;20035;-81
2021/12/19 01:15:50;;;;;;;10.82;8.18;;;17.90;69.30;;;;;;5032848;28;20444;-82
2021/12/19 01:18:16;;;;;;;11.15;7.90;;;17.80;69.40;;;;;;5032807;28;20048;-82
2021/12/19 01:20:42;;;;;;;12.32;8.52;;;17.80;69.50;;;;;;5032174;28;20057;-82
2021/12/19 01:23:09;;;;;;;10.65;8.00;;;17.80;69.50;;;;;;5032427;28;20548;-82
2021/12/19 01:25:35;;;;;;;12.68;9.60;;;17.80;69.50;;;;;;5035632;28;20468;-81
2021/12/19 01:28:01;;;;;;;11.02;8.23;;;17.80;69.60;;;;;;5052390;28;20021;-82
2021/12/19 01:30:27;;;;;;;11.23;8.43;;;17.80;69.60;;;;;;5035739;28;20029;-81
2021/12/19 01:32:53;;;;;;;9.23;6.82;;;17.70;69.60;;;;;;5032128;28;20032;-82
2021/12/19 01:35:21;;;;;;;10.90;7.78;;;17.70;69.60;;;;;;5031934;28;20037;-81
2021/12/19 01:37:47;;;;;;;11.23;8.10;;;17.70;69.60;;;;;;5032485;28;20026;-81
2021/12/19 01:40:15;;;;;;;10.98;8.30;;;17.70;69.60;;;;;;5032083;28;20135;-81
2021/12/19 01:42:43;;;;;;;11.75;7.85;;;17.70;69.60;;;;;;5014096;28;20536;-81
2021/12/19 01:45:12;;;;;;;10.55;7.97;;;17.70;69.60;;;;;;5031849;28;20033;-81
2021/12/19 01:47:38;;;;;;;11.25;8.30;;;17.70;69.50;;;;;;5013980;28;20044;-83
2021/12/19 01:50:06;;;;;;;10.02;6.97;;;17.70;69.50;;;;;;5031948;28;20025;-82
2021/12/19 01:52:32;;;;;;;10.90;7.50;;;17.70;69.50;;;;;;5031574;28;20030;-83
2021/12/19 01:54:58;;;;;;;11.40;8.60;;;17.70;69.50;;;;;;5031719;28;20052;-82
2021/12/19 01:57:25;;;;;;;11.32;8.48;;;17.70;69.50;;;;;;5013759;28;20152;-83
2021/12/19 01:59:55;;;;;;;9.68;7.65;;;17.60;69.40;;;;;;5031714;28;20022;-82
2021/12/19 02:02:21;;;;;;;10.27;7.90;;;17.70;69.50;;;;;;5031382;28;20429;-82
2021/12/19 02:04:47;;;;;;;11.00;7.82;;;17.70;69.50;;;;;;5043044;28;20021;-83
2021/12/19 02:07:14;;;;;;;9.52;7.05;;;17.60;69.80;;;;;;5051772;28;20483;-83
2021/12/19 02:09:42;;;;;;;10.50;7.88;;;17.60;69.40;;;;;;5051222;28;20396;-83
2021/12/19 02:12:08;;;;;;;10.85;7.43;;;17.60;69.40;;;;;;5033663;28;20033;-83
2021/12/19 02:14:34;;;;;;;11.15;7.38;;;17.70;69.40;;;;;;5033143;28;20033;-83
2021/12/19 02:17:00;;;;;;;10.70;8.02;;;17.70;69.40;;;;;;5051451;28;20090;-83
2021/12/19 02:19:25;;;;;;;9.45;7.57;;;17.60;69.30;;;;;;5049938;28;20472;-83
2021/12/19 02:21:52;;;;;;;10.00;7.30;;;17.60;69.30;;;;;;5033379;28;20032;-83
2021/12/19 02:24:18;;;;;;;10.15;7.05;;;17.60;69.30;;;;;;5033573;28;20476;-83
2021/12/19 02:26:44;;;;;;;8.55;6.70;;;17.60;70.00;;;;;;5035498;28;20037;-83
2021/12/19 02:29:11;;;;;;;9.27;7.18;;;17.60;69.20;;;;;;5031335;28;20029;-83
2021/12/19 02:31:38;;;;;;;13.38;7.72;;;17.60;69.20;;;;;;5031104;28;20029;-83
2021/12/19 02:34:10;;;;;;;9.15;6.57;;;17.60;69.20;;;;;;5031102;28;20033;-83
2021/12/19 02:36:57;;;;;;;9.00;6.53;;;17.70;69.20;;;;;;5013245;28;20029;-83
2021/12/19 02:50:04;;;;;;;9.82;7.45;;;17.60;69.10;;;;;;5051265;28;20035;-83
2021/12/19 02:52:30;;;;;;;10.18;7.32;;;17.60;69.10;;;;;;5050751;28;20013;-83
2021/12/19 02:54:55;;;;;;;9.85;7.18;;;17.60;69.10;;;;;;5032160;28;20040;-83
2021/12/19 02:57:21;;;;;;;9.70;7.38;;;17.60;69.10;;;;;;5049862;28;20053;-84
2021/12/19 02:59:47;;;;;;;11.45;7.22;;;17.60;69.10;;;;;;5051356;28;20021;-84
2021/12/19 03:02:13;;;;;;;10.32;7.25;;;17.70;69.20;;;;;;5051246;28;20025;-83
2021/12/19 03:04:54;;;;;;;9.00;6.68;;;17.60;69.10;;;;;;5020149;28;20550;-83
2021/12/19 03:07:20;;;;;;;9.27;6.72;;;17.60;69.10;;;;;;5030809;28;20099;-84
2021/12/19 03:20:22;;;;;;;10.18;6.97;;;17.70;69.10;;;;;;5045769;28;20033;-84
2021/12/19 03:22:48;;;;;;;9.73;6.97;;;17.70;69.10;;;;;;5033055;28;20388;-83
2021/12/19 03:25:13;;;;;;;8.85;6.53;;;17.70;69.10;;;;;;5033037;28;20021;-84
2021/12/19 03:27:39;;;;;;;8.57;6.53;;;17.70;69.10;;;;;;5052785;28;20025;-83
2021/12/19 03:30:06;;;;;;;9.98;7.32;;;17.70;69.10;;;;;;5036654;28;20392;-84
2021/12/19 03:32:32;;;;;;;8.65;6.25;;;17.70;69.10;;;;;;5036514;28;20056;-85
2021/12/19 03:34:58;;;;;;;7.85;5.85;;;17.70;69.00;;;;;;5036436;28;20530;-83
2021/12/19 03:37:24;;;;;;;9.00;6.68;;;17.70;68.90;;;;;;5036237;28;20163;-83
2021/12/19 03:40:08;;;;;;;8.48;6.40;;;17.70;68.90;;;;;;5036481;28;20021;-83
2021/12/19 03:42:35;;;;;;;8.05;6.28;;;17.70;68.80;;;;;;5054110;28;20017;-84
2021/12/19 03:45:02;;;;;;;8.65;6.30;;;17.70;68.90;;;;;;5036252;28;20036;-84
2021/12/19 03:47:28;;;;;;;7.97;6.00;;;17.70;68.80;;;;;;5035989;28;20072;-84
2021/12/19 03:49:53;;;;;;;8.05;6.30;;;17.80;68.90;;;;;;5054284;28;20021;-83
2021/12/19 03:52:19;;;;;;;7.38;5.30;;;17.80;68.90;;;;;;5036102;28;20495;-83
2021/12/19 03:54:45;;;;;;;6.82;5.28;;;17.70;68.80;;;;;;5036320;28;20523;-83
2021/12/19 03:57:10;;;;;;;6.80;5.40;;;17.80;68.80;;;;;;5021697;28;20083;-83
2021/12/19 03:59:36;;;;;;;6.47;5.40;;;17.80;68.90;;;;;;5033750;28;20492;-82
2021/12/19 04:02:03;;;;;;;6.25;5.30;;;17.80;68.80;;;;;;5016067;28;20018;-83
2021/12/19 04:04:34;;;;;;;6.72;5.20;;;17.80;68.90;;;;;;5028629;28;20119;-84
2021/12/19 04:07:00;;;;;;;6.95;5.15;;;17.80;68.90;;;;;;5053832;28;20453;-84
2021/12/19 04:09:26;;;;;;;7.00;5.45;;;17.80;68.90;;;;;;5052245;28;20110;-84
2021/12/19 04:11:55;;;;;;;7.63;5.47;;;17.80;68.90;;;;;;5053761;28;20052;-83
2021/12/19 04:14:20;;;;;;;6.72;5.50;;;17.80;68.90;;;;;;5035456;28;20041;-84
2021/12/19 04:16:46;;;;;;;7.45;6.20;;;17.80;69.30;;;;;;5036148;28;20044;-83
2021/12/19 04:19:12;;;;;;;6.60;5.28;;;17.80;68.90;;;;;;5053618;28;20082;-84
2021/12/19 04:21:38;;;;;;;6.57;5.20;;;17.80;68.90;;;;;;5035446;28;20406;-84
2021/12/19 04:24:04;;;;;;;6.70;5.10;;;17.80;68.90;;;;;;5034962;28;20029;-83
2021/12/19 04:26:30;;;;;;;7.00;5.70;;;17.80;68.90;;;;;;5053438;28;20028;-83
2021/12/19 04:28:56;;;;;;;6.40;5.10;;;17.80;68.90;;;;;;5053325;28;20400;-83
2021/12/19 04:31:22;;;;;;;7.60;5.60;;;17.80;68.80;;;;;;5035147;28;20017;-84
2021/12/19 04:33:48;;;;;;;6.93;5.10;;;17.80;68.70;;;;;;5035656;28;20110;-83
2021/12/19 04:36:22;;;;;;;7.40;5.03;;;17.80;68.70;;;;;;5034431;28;20021;-84
2021/12/19 04:52:44;;;;;;;6.55;4.97;;;17.80;68.50;;;;;;5033848;28;20048;-83
2021/12/19 05:00:15;;;;;;;5.10;3.92;;;17.80;68.40;;;;;;5032645;28;20029;-84
2021/12/19 05:02:47;;;;;;;5.30;4.30;;;17.90;68.50;;;;;;5033000;28;20075;-84
2021/12/19 05:05:48;;;;;;;4.97;3.75;;;17.90;68.40;;;;;;5017953;28;20024;-85
2021/12/19 05:16:24;;;;;;;5.85;4.32;;;17.90;68.30;;;;;;5052767;28;20381;-84
2021/12/19 05:18:53;;;;;;;5.15;3.90;;;17.90;68.40;;;;;;5052589;28;20029;-82
2021/12/19 05:21:23;;;;;;;5.35;4.00;;;17.90;68.40;;;;;;5052392;28;20074;-84
2021/12/19 05:24:17;;;;;;;5.90;4.10;;;17.90;68.30;;;;;;5034530;28;20040;-83
2021/12/19 05:26:42;;;;;;;4.85;3.50;;;17.90;68.20;;;;;;5052054;28;20021;-82
2021/12/19 05:29:09;;;;;;;6.00;4.05;;;17.90;68.20;;;;;;5041555;28;20037;-84
2021/12/19 05:31:35;;;;;;;5.15;3.92;;;17.90;68.20;;;;;;5032306;28;20021;-84
2021/12/19 05:34:00;;;;;;;4.25;3.15;;;17.90;68.20;;;;;;5031999;28;20481;-83
2021/12/19 05:47:08;;;;;;;4.85;3.28;;;17.90;68.10;;;;;;5031806;28;20066;-83
2021/12/19 05:49:34;;;;;;;4.65;3.33;;;17.90;68.10;;;;;;5031685;28;20021;-85
2021/12/19 05:52:00;;;;;;;5.22;3.65;;;17.80;68.00;;;;;;5014021;28;20064;-83
2021/12/19 05:54:27;;;;;;;5.95;3.83;;;17.90;68.10;;;;;;5031739;28;20041;-85
2021/12/19 05:56:52;;;;;;;5.10;3.60;;;17.90;68.00;;;;;;5031896;28;20159;-83
2021/12/19 05:59:19;;;;;;;4.65;3.17;;;17.90;68.00;;;;;;5032190;28;20549;-83
2021/12/19 06:01:46;;;;;;;4.85;3.30;;;17.90;68.00;;;;;;5032807;28;20408;-84
2021/12/19 06:04:12;;;;;;;4.30;3.35;;;17.90;68.00;;;;;;5031444;28;20033;-84
2021/12/19 06:06:38;;;;;;;4.80;3.20;;;17.90;67.90;;;;;;5031903;28;20389;-83
2021/12/19 06:09:05;;;;;;;4.28;3.22;;;17.90;67.90;;;;;;5038862;28;20503;-84
2021/12/19 06:11:31;;;;;;;5.35;3.63;;;17.90;67.90;;;;;;5032097;28;20110;-85
2021/12/19 06:13:57;;;;;;;4.40;3.17;;;17.90;67.90;;;;;;5034056;28;20039;-85
2021/12/19 06:16:23;;;;;;;3.83;3.10;;;17.90;67.80;;;;;;5051630;28;20025;-80
2021/12/19 06:18:49;;;;;;;5.15;3.28;;;17.90;67.90;;;;;;5052265;28;20040;-86
2021/12/19 06:21:14;;;;;;;4.45;3.47;;;17.90;67.90;;;;;;5033878;28;20028;-85
2021/12/19 06:23:40;;;;;;;4.47;3.10;;;17.90;67.80;;;;;;5051715;28;20025;-84
2021/12/19 06:26:10;;;;;;;5.07;3.53;;;17.90;67.80;;;;;;5033455;28;20052;-84
2021/12/19 06:28:36;;;;;;;5.55;3.65;;;17.90;67.70;;;;;;5051540;28;20158;-84
2021/12/19 06:31:01;;;;;;;3.63;3.03;;;17.90;67.70;;;;;;5051164;28;20515;-84
2021/12/19 06:33:27;;;;;;;3.83;2.95;;;17.90;67.70;;;;;;5033486;28;20029;-85
2021/12/19 06:35:53;;;;;;;4.45;3.00;;;17.90;67.70;;;;;;5050999;28;20021;-81
2021/12/19 06:38:19;;;;;;;5.20;3.25;;;17.90;67.70;;;;;;5051495;28;20037;-85
2021/12/19 06:40:44;;;;;;;6.50;3.80;;;17.90;68.40;;;;;;5051368;28;20476;-84
2021/12/19 06:43:10;;;;;;;4.47;3.13;;;17.90;67.60;;;;;;5051012;28;20100;-85
2021/12/19 06:45:36;;;;;;;5.10;3.63;;;17.80;67.60;;;;;;5051031;28;20078;-85
2021/12/19 06:48:02;;;;;;;6.03;3.95;;;17.90;67.70;;;;;;5050981;28;20020;-84
2021/12/19 06:50:28;;;;;;;4.80;3.55;;;17.80;67.50;;;;;;5027677;28;20040;-83
2021/12/19 06:52:53;;;;;;;4.97;3.53;;;17.80;67.50;;;;;;5013828;28;20381;-81
2021/12/19 06:55:19;;;;;;;5.18;3.30;;;17.80;67.60;;;;;;5031278;28;20042;-83
2021/12/19 06:57:45;;;;;;;6.03;3.75;;;17.80;67.50;;;;;;5031297;28;20559;-85
2021/12/19 07:00:18;;;;;;;4.88;3.08;;;17.80;67.50;;;;;;5031674;28;20087;-81
2021/12/19 07:02:44;;;;;;;5.47;4.00;;;17.80;67.50;;;;;;5044205;28;20515;-84
2021/12/19 07:05:10;;;;;;;5.40;3.53;;;17.90;67.60;;;;;;5054665;28;20053;-83
2021/12/19 07:07:35;;;;;;;4.35;3.05;;;17.80;67.40;;;;;;5053067;28;20151;-80
2021/12/19 07:10:02;;;;;;;5.75;3.75;;;17.90;67.40;;;;;;5038380;28;20110;-82
2021/12/19 07:12:28;;;;;;;4.85;3.38;;;17.90;67.40;;;;;;5050147;28;20630;-83
2021/12/19 07:14:54;;;;;;;4.80;3.40;;;17.90;67.40;;;;;;5041610;28;20112;-80
2021/12/19 07:17:20;;;;;;;4.75;3.28;;;17.90;67.40;;;;;;5052923;28;20021;-83
2021/12/19 07:19:46;;;;;;;4.65;3.33;;;17.90;67.30;;;;;;5071231;28;20033;-84
2021/12/19 07:22:12;;;;;;;4.93;3.08;;;17.90;68.00;;;;;;5064658;28;20028;-84
2021/12/19 07:24:37;;;;;;;4.30;2.92;;;17.90;67.20;;;;;;5054748;28;20033;-81
2021/12/19 07:27:03;;;;;;;4.88;3.22;;;17.90;67.30;;;;;;5054304;28;20021;-82
2021/12/19 07:29:30;;;;;;;5.25;3.20;;;17.90;67.20;;;;;;5036700;28;20033;-84
2021/12/19 07:31:56;;;;;;;5.55;3.63;;;17.90;67.20;;;;;;5054260;28;20074;-84
2021/12/19 07:34:29;;;;;;;5.13;3.67;;;17.90;67.10;;;;;;5044771;28;20049;-83
2021/12/19 07:36:54;;;;;;;5.32;3.80;;;17.90;67.20;;;;;;5034618;28;20021;-80
2021/12/19 07:39:26;;;;;;;5.53;3.33;;;17.90;67.20;;;;;;5034581;28;20035;-83
2021/12/19 07:41:52;;;;;;;4.10;3.28;;;17.90;67.30;;;;;;5016543;28;20448;-84
2021/12/19 07:44:17;;;;;;;5.18;3.63;;;17.90;67.40;;;;;;5033971;28;20116;-85
2021/12/19 07:46:44;;;;;;;4.38;3.13;;;17.90;67.40;;;;;;5043747;28;20109;-84
2021/12/19 07:49:10;;;;;;;4.70;2.88;;;17.90;67.40;;;;;;5038354;28;20026;-85
2021/12/19 07:51:36;;;;;;;5.13;3.50;;;17.90;67.50;;;;;;5041371;28;20483;-85
2021/12/19 07:54:02;;;;;;;6.88;3.50;;;18.00;67.50;;;;;;5040837;28;20116;-83
2021/12/19 07:56:28;;;;;;;5.85;3.53;;;18.00;67.60;;;;;;5046418;28;20017;-85
2021/12/19 07:58:53;;;;;;;7.55;3.47;;;18.00;67.60;;;;;;5043960;28;20403;-83
2021/12/19 08:01:19;;;;;;;6.18;3.20;;;18.00;67.60;;;;;;5037933;28;20052;-84
2021/12/19 08:03:45;;;;;;;4.93;3.25;;;18.00;67.60;;;;;;5043495;28;20028;-84
2021/12/19 08:06:11;;;;;;;5.43;3.00;;;18.00;67.60;;;;;;5044352;28;20021;-84
2021/12/19 08:08:37;;;;;;;6.22;3.75;;;18.00;67.60;;;;;;5053996;28;20074;-85
2021/12/19 08:13:47;;;;;;;5.82;3.75;;;18.00;67.60;;;;;;5040949;28;20084;-83
2021/12/19 08:16:12;;;;;;;7.13;4.18;;;18.00;67.50;;;;;;5047896;28;20487;-86
2021/12/19 08:18:38;;;;;;;5.63;3.85;;;18.00;67.50;;;;;;5043949;28;20033;-86
2021/12/19 08:21:04;;;;;;;7.03;4.28;;;18.00;68.30;;;;;;5042389;28;20036;-85
2021/12/19 08:23:29;;;;;;;7.40;4.57;;;18.00;67.50;;;;;;5042006;28;20034;-86
2021/12/19 08:25:55;;;;;;;6.45;4.60;;;18.00;67.50;;;;;;5043397;28;20045;-80
2021/12/19 08:28:21;;;;;;;6.72;4.50;;;18.10;67.40;;;;;;5042296;28;20032;-78
2021/12/19 08:30:46;;;;;;;7.22;4.00;;;18.10;67.40;;;;;;5042834;28;20029;-85
2021/12/19 08:33:12;;;;;;;8.13;4.25;;;18.10;67.40;;;;;;5053065;28;20358;-88
2021/12/19 08:35:38;;;;;;;12.48;4.22;;;18.20;67.50;;;;;;5048354;28;20056;-84
2021/12/19 08:38:04;;;;;;;7.15;3.88;;;18.30;67.60;;;;;;5035089;28;20029;-81
2021/12/19 08:40:31;;;;;;;8.52;4.72;;;18.30;67.50;;;;;;5022628;28;20028;-84
2021/12/19 08:42:57;;;;;;;6.93;3.70;;;18.30;67.40;;;;;;5036659;28;20481;-83
2021/12/19 08:45:23;;;;;;;9.65;5.10;;;18.40;67.30;;;;;;5039951;28;20031;-84
2021/12/19 08:47:50;;;;;;;7.05;3.97;;;18.50;67.30;;;;;;5042692;28;20025;-84
2021/12/19 08:50:16;;;;;;;6.47;4.13;;;18.50;67.30;;;;;;5040772;28;21558;-83
2021/12/19 08:52:43;;;;;;;7.28;4.00;;;18.50;67.20;;;;;;5038951;28;20035;-84
2021/12/19 08:55:09;;;;;;;13.52;5.97;;;18.60;67.20;;;;;;5040374;28;20030;-83
2021/12/19 08:57:35;;;;;;;17.80;9.50;;;18.60;67.10;;;;;;5021059;28;20029;-82
2021/12/19 09:00:04;;;;;;;10.30;6.55;;;18.70;67.20;;;;;;5037547;28;20087;-82
2021/12/19 09:02:30;;;;;;;10.38;6.72;;;18.70;67.30;;;;;;5055844;28;20032;-83
2021/12/19 09:04:56;;;;;;;10.13;6.07;;;18.80;67.00;;;;;;5025127;28;20025;-83
2021/12/19 09:07:21;;;;;;;10.50;6.47;;;18.80;67.00;;;;;;5023075;28;20033;-84
2021/12/19 09:09:48;;;;;;;8.40;5.32;;;18.90;67.00;;;;;;5026231;28;20035;-87
2021/12/19 09:12:14;;;;;;;12.38;6.30;;;18.90;66.80;;;;;;5066153;28;20616;-89
2021/12/19 09:14:40;;;;;;;10.32;5.88;;;19.00;66.50;;;;;;5035009;28;20469;-85
2021/12/19 09:17:06;;;;;;;10.00;5.38;;;;;;;;;;5039607;28;20032;-86
2021/12/19 09:19:32;;;;;;;9.48;6.22;;;;;;;;;;5038141;28;20067;-86
2021/12/19 09:21:58;;;;;;;8.85;5.35;;;;;;;;;;5041546;28;20057;-84
2021/12/19 09:24:24;;;;;;;8.18;5.82;;;;;;;;;;5062742;28;20020;-82
2021/12/19 09:26:50;;;;;;;8.10;5.15;;;;;;;;;;5019776;28;20029;-83
2021/12/19 09:29:16;;;;;;;7.78;5.35;;;;;;;;;;5044945;28;20044;-83
2021/12/19 09:31:42;;;;;;;7.20;4.78;;;;;;;;;;5041877;28;20049;-82
2021/12/19 09:34:08;;;;;;;8.98;5.28;;;;;;;;;;5037718;28;20112;-83
2021/12/19 09:36:34;;;;;;;14.00;5.15;;;;;;;;;;5031462;28;20024;-81
2021/12/19 09:39:01;;;;;;;8.50;5.28;;;;;;;;;;5038806;28;20028;-86
2021/12/19 09:41:33;;;;;;;8.65;4.95;;;;;;;;;;5050752;28;20052;-82
2021/12/19 09:44:02;;;;;;;11.10;5.45;;;;;;;;;;5022102;28;20048;-81
2021/12/19 09:46:31;;;;;;;13.43;5.70;;;;;;;;;;5039166;28;20029;-81
2021/12/19 09:48:57;;;;;;;11.45;5.55;;;;;;;;;;5035158;28;20025;-84
2021/12/19 09:51:23;;;;;;;7.20;5.05;;;;;;;;;;5035066;28;20076;-79
2021/12/19 09:53:50;;;;;;;7.78;4.80;;;;;;;;;;5031729;28;20108;-81
2021/12/19 09:56:16;;;;;;;8.18;5.53;;;;;;;;;;5039909;28;20033;-81
2021/12/19 09:58:42;;;;;;;7.13;5.00;;;;;;;;;;5041709;28;20029;-80
2021/12/19 10:01:09;;;;;;;7.03;4.40;;;;;;;;;;5033623;28;20160;-83
2021/12/19 10:03:36;;;;;;;8.82;4.78;;;19.80;66.20;;;;;;5041073;28;20489;-83
2021/12/19 10:06:23;;;;;;;12.00;5.40;;;19.90;66.30;;;;;;5032155;28;20485;-82
2021/12/19 10:09:06;;;;;;;9.73;5.18;;;19.90;67.00;;;;;;5034185;28;20108;-85
2021/12/19 10:11:45;;;;;;;6.53;4.47;;;20.00;67.20;;;;;;5030976;28;20518;-89
2021/12/19 10:14:38;;;;;;;7.93;3.92;;;20.00;66.50;;;;;;5032382;28;20036;-90
2021/12/19 10:17:07;;;;;;;8.70;4.50;;;20.10;67.20;;;;;;5043408;28;20037;-88
2021/12/19 10:19:46;;;;;;;11.00;4.30;;;20.10;67.10;;;;;;5036945;28;20374;-83
2021/12/19 10:22:33;;;;;;;8.85;4.47;;;20.10;67.70;;;;;;5021691;28;20064;-85
2021/12/19 10:25:18;;;;;;;8.52;4.47;;;20.00;67.60;;;;;;5030905;28;20056;-82
2021/12/19 10:27:55;;;;;;;8.68;4.47;;;20.00;67.40;;;;;;5031150;28;20031;-81
2021/12/19 10:30:31;;;;;;;5.78;3.38;;;20.00;67.10;;;;;;5030837;28;20545;-86
2021/12/19 10:33:01;;;;;;;9.77;3.88;;;19.90;66.90;;;;;;5031525;28;20104;-90
2021/12/19 10:35:40;;;;;;;5.53;3.88;;;19.90;67.00;;;;;;5033421;28;20040;-87
2021/12/19 10:38:13;;;;;;;7.70;3.88;;;19.90;67.20;;;;;;5051243;28;20036;-86
2021/12/19 10:40:43;;;;;;;7.15;3.40;;;19.80;67.00;;;;;;5045125;28;20526;-85
2021/12/19 10:43:16;;;;;;;7.93;3.85;;;19.80;67.10;;;;;;5028624;28;20028;-85
2021/12/19 10:45:48;;;;;;;7.07;3.72;;;19.70;66.80;;;;;;5038342;28;20037;-88
2021/12/19 10:48:22;;;;;;;8.32;3.97;;;19.70;66.60;;;;;;5050365;28;20033;-86
2021/12/19 10:50:50;;;;;;;8.20;3.72;;;19.70;66.30;;;;;;5033496;28;20033;-87
2021/12/19 10:53:17;;;;;;;8.25;4.03;;;19.60;66.10;;;;;;5016304;28;20029;-85
2021/12/19 10:55:46;;;;;;;5.90;3.22;;;19.60;66.10;;;;;;5051308;28;20112;-88
2021/12/19 10:58:43;;;;;;;5.88;3.45;;;;;;;;;;5032754;28;20032;-84
2021/12/19 11:01:14;;;;;;;6.75;3.17;;;;;;;;;;5032606;28;20048;-92
2021/12/19 11:03:45;;;;;;;6.90;3.17;;;;;;;;;;5039437;28;20480;-89
2021/12/19 11:06:16;;;;;;;6.75;3.42;;;;;;;;;;5038231;28;20021;-84
2021/12/19 11:08:43;;;;;;;9.48;2.80;;;;;;;;;;5038717;28;20025;-87
2021/12/19 11:11:09;;;;;;;4.13;2.90;;;;;;;;;;5045874;28;20548;-88
2021/12/19 11:13:35;;;;;;;8.02;3.28;;;19.50;64.10;;;;;;5050758;28;20059;-90
2021/12/19 11:16:02;;;;;;;5.00;2.50;;;19.50;64.40;;;;;;5044595;28;20021;-88
2021/12/19 11:18:27;;;;;;;5.97;3.00;;;19.40;64.50;;;;;;5037143;28;20458;-87
2021/12/19 11:20:53;;;;;;;4.03;2.45;;;19.40;65.00;;;;;;5050758;28;20057;-84
2021/12/19 11:23:19;;;;;;;7.97;2.38;;;19.40;65.20;;;;;;5050737;28;20508;-89
2021/12/19 11:25:45;;;;;;;8.25;2.95;;;19.40;64.90;;;;;;5050983;28;20032;-85
2021/12/19 11:28:12;;;;;;;4.63;2.55;;;19.30;65.10;;;;;;5043509;28;20025;-86
2021/12/19 11:30:38;;;;;;;6.15;2.60;;;19.30;65.00;;;;;;5033958;28;20107;-87
2021/12/19 11:33:30;;;;;;;5.55;3.42;;;19.30;65.20;;;;;;5045534;28;20045;-83
2021/12/19 11:35:57;;;;;;;5.65;2.45;;;19.30;65.50;;;;;;5034071;28;20040;-82
2021/12/19 11:38:24;;;;;;;7.70;2.60;;;19.30;65.40;;;;;;5039268;28;20009;-89
2021/12/19 11:40:51;;;;;;;5.18;2.60;;;19.20;65.70;;;;;;5039128;28;20041;-87
2021/12/19 11:43:17;;;;;;;4.43;2.22;;;19.20;65.90;;;;;;5030577;28;20045;-87
2021/12/19 11:45:54;;;;;;;5.47;2.15;;;19.20;65.80;;;;;;5032575;28;20489;-85
2021/12/19 11:48:28;;;;;;;4.50;2.58;;;19.20;65.50;;;;;;5044143;28;20013;-81
2021/12/19 11:50:59;;;;;;;6.75;2.13;;;19.20;65.20;;;;;;5034194;28;20111;-85
2021/12/19 11:53:30;;;;;;;2.88;1.80;;;19.20;65.50;;;;;;5032850;28;20477;-82
2021/12/19 11:56:11;;;;;;;7.68;2.33;;;19.10;65.50;;;;;;5017855;28;20539;-82
2021/12/19 11:58:38;;;;;;;4.57;2.13;;;19.10;65.90;;;;;;5037790;28;20032;-83
2021/12/19 12:01:08;;;;;;;3.85;2.17;;;19.10;66.00;;;;;;5036131;28;20026;-82
2021/12/19 12:03:38;;;;;;;4.18;1.90;;;19.10;66.00;;;;;;5033503;28;20029;-83
2021/12/19 12:06:21;;;;;;;14.35;4.35;;;19.10;66.40;;;;;;5039664;28;20075;-81
2021/12/19 12:09:09;;;;;;;22.88;6.85;;;19.10;65.80;;;;;;5043289;28;20053;-78
2021/12/19 12:11:38;;;;;;;57.75;13.13;;;19.10;65.60;;;;;;5033244;28;20119;-82
2021/12/19 12:14:26;;;;;;;68.78;14.27;;;19.10;65.70;;;;;;5033308;28;20025;-83
2021/12/19 12:17:07;;;;;;;53.38;12.65;;;19.00;65.60;;;;;;5033519;28;20359;-85
2021/12/19 12:19:42;;;;;;;43.80;11.30;;;19.00;66.00;;;;;;5033498;28;20391;-83
2021/12/19 12:22:29;;;;;;;43.20;9.25;;;19.00;66.10;;;;;;5035315;28;20133;-85
2021/12/19 12:25:11;;;;;;;44.58;11.07;;;19.00;65.70;;;;;;5048951;28;20024;-86
2021/12/19 12:27:47;;;;;;;47.67;9.85;;;19.00;66.00;;;;;;5037374;28;20018;-83
2021/12/19 12:30:12;;;;;;;;;;;19.00;65.90;;;;;;5029876;28;20026;-89
2021/12/19 12:32:39;;;;;;;41.08;9.10;;;19.00;66.00;;;;;;5050092;28;19959;-87
2021/12/19 12:35:05;;;;;;;28.02;7.60;;;;;;;;;;5041580;28;20098;-76
2021/12/19 12:37:33;;;;;;;33.75;8.27;;;;;;;;;;5033194;28;20026;-77
2021/12/19 12:43:18;;;;;;;28.40;6.32;;;;;;;;;;5043134;28;20032;-76
2021/12/19 12:45:55;;;;;;;29.85;7.07;;;;;;;;;;5035088;28;20041;-76
2021/12/19 12:48:41;;;;;;;21.98;5.43;;;;;;;;;;5040497;28;20026;-75
2021/12/19 12:51:18;;;;;;;18.60;5.38;;;;;;;;;;5032453;28;20044;-76
2021/12/19 12:53:49;;;;;;;19.02;5.07;;;;;;;;;;5033598;28;20586;-76
2021/12/19 12:56:18;;;;;;;20.98;5.72;;;;;;;;;;5048571;28;20022;-76
2021/12/19 12:58:46;;;;;;;18.70;5.00;;;;;;;;;;5043432;28;20025;-76
2021/12/19 13:01:14;;;;;;;17.83;4.95;;;;;;;;;;5046056;28;20025;-76
2021/12/19 13:03:40;;;;;;;14.75;4.28;;;;;;;;;;5042447;28;20112;-76
2021/12/19 13:06:06;;;;;;;15.63;4.20;;;;;;;;;;5016048;28;20025;-76
2021/12/19 13:08:32;;;;;;;15.57;4.68;;;;;;;;;;5033419;28;20022;-76
2021/12/19 13:10:59;;;;;;;12.82;3.80;;;;;;;;;;5037587;28;20028;-79
2021/12/19 13:13:26;;;;;;;14.80;4.43;;;;;;;;;;5032855;28;20018;-79
2021/12/19 13:15:52;;;;;;;11.30;3.47;;;;;;;;;;5041621;28;20499;-79
2021/12/19 13:18:18;;;;;;;13.40;3.83;;;;;;;;;;5037248;28;20389;-80
2021/12/19 13:20:44;;;;;;;13.13;4.38;;;;;;;;;;5037242;28;20083;-80
2021/12/19 13:23:10;;;;;;;10.73;3.60;;;;;;;;;;5031212;28;20021;-78
2021/12/19 13:25:41;;;;;;;10.88;3.83;;;;;;;;;;5032222;28;20033;-79
2021/12/19 13:28:12;;;;;;;11.45;3.47;;;;;;;;;;5031799;28;20048;-79
2021/12/19 13:30:40;;;;;;;9.43;3.33;;;;;;;;;;5030735;28;20035;-80
2021/12/19 13:33:09;;;;;;;11.88;3.50;;;;;;;;;;5038017;28;20029;-78
2021/12/19 13:35:38;;;;;;;9.48;3.38;;;;;;;;;;5031819;28;20037;-80
2021/12/19 13:38:08;;;;;;;11.95;3.33;;;;;;;;;;5030435;28;20013;-80
2021/12/19 13:40:36;;;;;;;11.73;3.60;;;;;;;;;;5014061;28;20025;-80
2021/12/19 13:43:10;;;;;;;9.70;3.28;;;;;;;;;;5030146;28;20397;-81
2021/12/19 13:45:52;;;;;;;11.60;3.75;;;;;;;;;;5033560;28;20465;-80
2021/12/19 13:48:21;;;;;;;11.73;4.15;;;;;;;;;;5019496;28;20037;-80
2021/12/19 13:50:49;;;;;;;9.15;2.53;;;;;;;;;;5030210;28;20070;-80
2021/12/19 13:53:16;;;;;;;11.23;4.15;;;;;;;;;;5033150;28;20025;-78
2021/12/19 13:55:44;;;;;;;10.15;3.67;;;;;;;;;;5035210;28;20565;-79
2021/12/19 13:58:11;;;;;;;10.32;3.75;;;;;;;;;;5042435;28;20369;-79
2021/12/19 14:00:43;;;;;;;7.82;3.33;;;;;;;;;;5030961;28;20373;-79
2021/12/19 14:03:10;;;;;;;7.68;2.85;;;;;;;;;;5031048;28;20071;-79
2021/12/19 14:05:40;;;;;;;10.00;3.78;;;;;;;;;;5030342;28;20083;-79
2021/12/19 14:08:19;;;;;;;8.98;2.92;;;;;;;;;;5030935;28;20099;-80
2021/12/19 14:10:45;;;;;;;7.85;3.22;;;;;;;;;;5030147;28;20017;-78
2021/12/19 14:13:16;;;;;;;10.05;3.20;;;;;;;;;;5023784;28;20120;-78
2021/12/19 14:15:52;;;;;;;6.22;2.97;;;;;;;;;;5031435;28;20033;-78
2021/12/19 14:18:38;;;;;;;9.55;2.83;;;;;;;;;;5030817;28;20390;-78
2021/12/19 14:21:04;;;;;;;6.15;3.38;;;;;;;;;;5030927;28;20104;-78
2021/12/19 14:23:37;;;;;;;8.38;3.45;;;;;;;;;;5031314;28;20061;-78